sensor_id;sensor_type;location;lat;lon;timestamp;P1;durP1;ratioP1;P2;durP2;ratioP2
26223;SDS011;14820;48.682;8.890;2023-01-16T00:02:15;3.85;;;1.17;;
26223;SDS011;14820;48.682;8.890;2023-01-16T00:04:41;3.88;;;1.00;;
26223;SDS011;14820;48.682;8.890;2023-01-16T00:07:07;8.98;;;1.42;;
26223;SDS011;14820;48.682;8.890;2023-01-16T00:09:32;4.82;;;1.58;;
26223;SDS011;14820;48.682;8.890;2023-01-16T00:11:58;4.00;;;1.40;;
26223;SDS011;14820;48.682;8.890;2023-01-16T00:14:24;2.03;;;1.08;;
26223;SDS011;14820;48.682;8.890;2023-01-16T00:16:49;5.72;;;1.27;;
26223;SDS011;14820;48.682;8.890;2023-01-16T00:19:15;5.18;;;1.30;;
26223;SDS011;14820;48.682;8.890;2023-01-16T00:21:41;5.30;;;1.17;;
26223;SDS011;14820;48.682;8.890;2023-01-16T00:24:07;2.13;;;1.10;;
26223;SDS011;14820;48.682;8.890;2023-01-16T00:26:33;4.95;;;1.33;;
26223;SDS011;14820;48.682;8.890;2023-01-16T00:28:59;6.28;;;1.35;;
26223;SDS011;14820;48.682;8.890;2023-01-16T00:31:24;4.65;;;1.20;;
26223;SDS011;14820;48.682;8.890;2023-01-16T00:33:50;4.00;;;1.05;;
26223;SDS011;14820;48.682;8.890;2023-01-16T00:36:16;5.53;;;1.13;;
26223;SDS011;14820;48.682;8.890;2023-01-16T00:38:42;3.08;;;1.10;;
26223;SDS011;14820;48.682;8.890;2023-01-16T00:41:07;1.90;;;1.10;;
26223;SDS011;14820;48.682;8.890;2023-01-16T00:43:33;2.53;;;1.08;;
26223;SDS011;14820;48.682;8.890;2023-01-16T00:45:59;2.85;;;1.08;;
26223;SDS011;14820;48.682;8.890;2023-01-16T00:48:25;3.67;;;1.30;;
26223;SDS011;14820;48.682;8.890;2023-01-16T00:50:51;7.00;;;1.15;;
26223;SDS011;14820;48.682;8.890;2023-01-16T00:53:16;5.05;;;1.30;;
26223;SDS011;14820;48.682;8.890;2023-01-16T00:55:42;4.72;;;1.33;;
26223;SDS011;14820;48.682;8.890;2023-01-16T00:58:08;5.88;;;1.65;;
26223;SDS011;14820;48.682;8.890;2023-01-16T01:00:37;3.47;;;1.17;;
26223;SDS011;14820;48.682;8.890;2023-01-16T01:03:03;7.20;;;1.65;;
26223;SDS011;14820;48.682;8.890;2023-01-16T01:05:30;7.40;;;1.55;;
26223;SDS011;14820;48.682;8.890;2023-01-16T01:07:56;2.55;;;1.15;;
26223;SDS011;14820;48.682;8.890;2023-01-16T01:10:21;4.07;;;1.08;;
26223;SDS011;14820;48.682;8.890;2023-01-16T01:12:47;2.83;;;1.13;;
26223;SDS011;14820;48.682;8.890;2023-01-16T01:15:13;2.40;;;1.00;;
26223;SDS011;14820;48.682;8.890;2023-01-16T01:17:38;6.28;;;1.13;;
26223;SDS011;14820;48.682;8.890;2023-01-16T01:20:04;7.75;;;1.27;;
26223;SDS011;14820;48.682;8.890;2023-01-16T01:22:30;3.60;;;1.45;;
26223;SDS011;14820;48.682;8.890;2023-01-16T01:24:56;4.40;;;1.40;;
26223;SDS011;14820;48.682;8.890;2023-01-16T01:27:22;7.53;;;1.48;;
26223;SDS011;14820;48.682;8.890;2023-01-16T01:29:47;6.55;;;1.75;;
26223;SDS011;14820;48.682;8.890;2023-01-16T01:32:13;4.97;;;1.40;;
26223;SDS011;14820;48.682;8.890;2023-01-16T01:34:39;3.00;;;1.10;;
26223;SDS011;14820;48.682;8.890;2023-01-16T01:37:05;6.18;;;1.00;;
26223;SDS011;14820;48.682;8.890;2023-01-16T01:39:31;6.88;;;1.35;;
26223;SDS011;14820;48.682;8.890;2023-01-16T01:41:57;4.90;;;1.20;;
26223;SDS011;14820;48.682;8.890;2023-01-16T01:45:04;4.47;;;1.20;;
26223;SDS011;14820;48.682;8.890;2023-01-16T01:47:49;3.60;;;1.63;;
26223;SDS011;14820;48.682;8.890;2023-01-16T01:53:12;5.72;;;1.00;;
26223;SDS011;14820;48.682;8.890;2023-01-16T01:55:44;5.35;;;1.25;;
26223;SDS011;14820;48.682;8.890;2023-01-16T01:58:12;4.82;;;1.30;;
26223;SDS011;14820;48.682;8.890;2023-01-16T02:00:44;3.88;;;1.10;;
26223;SDS011;14820;48.682;8.890;2023-01-16T02:03:10;4.80;;;1.20;;
26223;SDS011;14820;48.682;8.890;2023-01-16T02:05:41;4.55;;;1.00;;
26223;SDS011;14820;48.682;8.890;2023-01-16T02:08:15;5.15;;;1.23;;
26223;SDS011;14820;48.682;8.890;2023-01-16T02:10:49;6.32;;;1.27;;
26223;SDS011;14820;48.682;8.890;2023-01-16T02:13:19;4.70;;;1.00;;
26223;SDS011;14820;48.682;8.890;2023-01-16T02:15:45;3.78;;;1.15;;
26223;SDS011;14820;48.682;8.890;2023-01-16T02:18:32;2.88;;;1.25;;
26223;SDS011;14820;48.682;8.890;2023-01-16T02:43:05;3.63;;;1.10;;
26223;SDS011;14820;48.682;8.890;2023-01-16T02:45:42;2.20;;;0.95;;
26223;SDS011;14820;48.682;8.890;2023-01-16T02:51:02;7.82;;;1.20;;
26223;SDS011;14820;48.682;8.890;2023-01-16T02:56:46;6.93;;;1.35;;
26223;SDS011;14820;48.682;8.890;2023-01-16T02:59:16;1.90;;;0.90;;
26223;SDS011;14820;48.682;8.890;2023-01-16T03:01:44;3.08;;;1.00;;
26223;SDS011;14820;48.682;8.890;2023-01-16T03:13:16;4.80;;;1.00;;
26223;SDS011;14820;48.682;8.890;2023-01-16T03:21:29;3.60;;;0.85;;
26223;SDS011;14820;48.682;8.890;2023-01-16T03:24:26;4.07;;;1.30;;
26223;SDS011;14820;48.682;8.890;2023-01-16T03:27:29;6.13;;;1.75;;
26223;SDS011;14820;48.682;8.890;2023-01-16T03:38:26;4.07;;;1.00;;
26223;SDS011;14820;48.682;8.890;2023-01-16T03:40:54;3.83;;;1.02;;
26223;SDS011;14820;48.682;8.890;2023-01-16T03:43:29;4.00;;;1.13;;
26223;SDS011;14820;48.682;8.890;2023-01-16T03:48:44;3.65;;;1.20;;
26223;SDS011;14820;48.682;8.890;2023-01-16T03:51:28;4.30;;;1.17;;
26223;SDS011;14820;48.682;8.890;2023-01-16T03:54:01;7.88;;;1.50;;
26223;SDS011;14820;48.682;8.890;2023-01-16T03:56:43;3.83;;;1.20;;
26223;SDS011;14820;48.682;8.890;2023-01-16T03:59:13;2.58;;;1.15;;
26223;SDS011;14820;48.682;8.890;2023-01-16T04:01:52;4.47;;;1.23;;
26223;SDS011;14820;48.682;8.890;2023-01-16T04:04:29;1.88;;;0.80;;
26223;SDS011;14820;48.682;8.890;2023-01-16T04:07:24;3.83;;;1.00;;
26223;SDS011;14820;48.682;8.890;2023-01-16T04:10:00;4.10;;;1.25;;
26223;SDS011;14820;48.682;8.890;2023-01-16T04:12:32;4.93;;;0.98;;
26223;SDS011;14820;48.682;8.890;2023-01-16T04:15:05;5.05;;;1.30;;
26223;SDS011;14820;48.682;8.890;2023-01-16T04:17:33;2.78;;;0.90;;
26223;SDS011;14820;48.682;8.890;2023-01-16T04:20:00;1.77;;;0.75;;
26223;SDS011;14820;48.682;8.890;2023-01-16T04:22:28;5.60;;;1.08;;
26223;SDS011;14820;48.682;8.890;2023-01-16T04:24:58;5.32;;;0.88;;
26223;SDS011;14820;48.682;8.890;2023-01-16T04:27:25;3.13;;;0.82;;
26223;SDS011;14820;48.682;8.890;2023-01-16T04:29:51;3.10;;;1.08;;
26223;SDS011;14820;48.682;8.890;2023-01-16T04:32:17;6.50;;;0.90;;
26223;SDS011;14820;48.682;8.890;2023-01-16T04:34:43;5.35;;;0.93;;
26223;SDS011;14820;48.682;8.890;2023-01-16T04:37:09;4.53;;;0.98;;
26223;SDS011;14820;48.682;8.890;2023-01-16T04:39:37;3.72;;;0.95;;
26223;SDS011;14820;48.682;8.890;2023-01-16T04:42:03;2.97;;;1.00;;
26223;SDS011;14820;48.682;8.890;2023-01-16T04:44:29;1.05;;;0.60;;
26223;SDS011;14820;48.682;8.890;2023-01-16T04:46:54;1.05;;;0.57;;
26223;SDS011;14820;48.682;8.890;2023-01-16T04:49:20;4.05;;;0.80;;
26223;SDS011;14820;48.682;8.890;2023-01-16T04:51:46;8.73;;;2.08;;
26223;SDS011;14820;48.682;8.890;2023-01-16T04:54:15;6.07;;;2.03;;
26223;SDS011;14820;48.682;8.890;2023-01-16T04:56:42;6.88;;;1.67;;
26223;SDS011;14820;48.682;8.890;2023-01-16T04:59:08;4.18;;;1.15;;
26223;SDS011;14820;48.682;8.890;2023-01-16T05:01:35;2.15;;;0.85;;
26223;SDS011;14820;48.682;8.890;2023-01-16T05:04:02;2.13;;;1.08;;
26223;SDS011;14820;48.682;8.890;2023-01-16T05:06:29;2.60;;;1.10;;
26223;SDS011;14820;48.682;8.890;2023-01-16T05:08:54;3.95;;;0.90;;
26223;SDS011;14820;48.682;8.890;2023-01-16T05:11:20;2.80;;;1.05;;
26223;SDS011;14820;48.682;8.890;2023-01-16T05:13:46;2.85;;;0.90;;
26223;SDS011;14820;48.682;8.890;2023-01-16T05:16:11;2.30;;;1.00;;
26223;SDS011;14820;48.682;8.890;2023-01-16T05:18:37;3.10;;;1.10;;
26223;SDS011;14820;48.682;8.890;2023-01-16T05:21:03;4.03;;;1.08;;
26223;SDS011;14820;48.682;8.890;2023-01-16T05:23:29;7.25;;;2.08;;
26223;SDS011;14820;48.682;8.890;2023-01-16T05:25:58;5.55;;;1.73;;
26223;SDS011;14820;48.682;8.890;2023-01-16T05:28:24;3.03;;;1.60;;
26223;SDS011;14820;48.682;8.890;2023-01-16T05:30:50;2.10;;;1.20;;
26223;SDS011;14820;48.682;8.890;2023-01-16T05:33:15;4.28;;;1.90;;
26223;SDS011;14820;48.682;8.890;2023-01-16T05:35:41;3.72;;;1.27;;
26223;SDS011;14820;48.682;8.890;2023-01-16T05:38:07;3.47;;;1.25;;
26223;SDS011;14820;48.682;8.890;2023-01-16T05:40:33;4.03;;;1.20;;
26223;SDS011;14820;48.682;8.890;2023-01-16T05:42:58;5.57;;;2.25;;
26223;SDS011;14820;48.682;8.890;2023-01-16T05:45:24;2.97;;;1.65;;
26223;SDS011;14820;48.682;8.890;2023-01-16T05:47:50;4.05;;;1.40;;
26223;SDS011;14820;48.682;8.890;2023-01-16T05:50:15;3.30;;;1.08;;
26223;SDS011;14820;48.682;8.890;2023-01-16T05:52:41;4.32;;;1.02;;
26223;SDS011;14820;48.682;8.890;2023-01-16T05:55:07;4.70;;;1.60;;
26223;SDS011;14820;48.682;8.890;2023-01-16T05:57:33;3.65;;;1.38;;
26223;SDS011;14820;48.682;8.890;2023-01-16T05:59:59;3.35;;;1.40;;
26223;SDS011;14820;48.682;8.890;2023-01-16T06:02:24;1.80;;;1.10;;
26223;SDS011;14820;48.682;8.890;2023-01-16T06:04:50;2.20;;;1.25;;
26223;SDS011;14820;48.682;8.890;2023-01-16T06:07:16;1.50;;;0.80;;
26223;SDS011;14820;48.682;8.890;2023-01-16T06:09:42;2.85;;;1.05;;
26223;SDS011;14820;48.682;8.890;2023-01-16T06:12:11;4.93;;;1.20;;
26223;SDS011;14820;48.682;8.890;2023-01-16T06:14:42;4.65;;;1.33;;
26223;SDS011;14820;48.682;8.890;2023-01-16T06:17:08;3.00;;;1.05;;
26223;SDS011;14820;48.682;8.890;2023-01-16T06:19:34;3.88;;;1.10;;
26223;SDS011;14820;48.682;8.890;2023-01-16T06:21:59;3.47;;;1.00;;
26223;SDS011;14820;48.682;8.890;2023-01-16T06:24:25;3.00;;;1.23;;
26223;SDS011;14820;48.682;8.890;2023-01-16T06:26:50;2.50;;;1.65;;
26223;SDS011;14820;48.682;8.890;2023-01-16T06:29:16;6.38;;;1.40;;
26223;SDS011;14820;48.682;8.890;2023-01-16T06:31:45;6.10;;;1.48;;
26223;SDS011;14820;48.682;8.890;2023-01-16T06:34:10;5.32;;;1.33;;
26223;SDS011;14820;48.682;8.890;2023-01-16T06:36:36;4.43;;;1.30;;
26223;SDS011;14820;48.682;8.890;2023-01-16T06:39:02;2.92;;;1.17;;
26223;SDS011;14820;48.682;8.890;2023-01-16T06:41:28;11.77;;;5.82;;
26223;SDS011;14820;48.682;8.890;2023-01-16T06:43:53;6.90;;;3.58;;
26223;SDS011;14820;48.682;8.890;2023-01-16T06:46:19;4.75;;;1.88;;
26223;SDS011;14820;48.682;8.890;2023-01-16T06:48:44;6.28;;;2.00;;
26223;SDS011;14820;48.682;8.890;2023-01-16T06:51:10;4.20;;;1.40;;
26223;SDS011;14820;48.682;8.890;2023-01-16T06:53:36;2.17;;;1.20;;
26223;SDS011;14820;48.682;8.890;2023-01-16T06:56:02;3.05;;;1.00;;
26223;SDS011;14820;48.682;8.890;2023-01-16T06:58:28;3.70;;;1.13;;
26223;SDS011;14820;48.682;8.890;2023-01-16T07:00:53;6.13;;;1.80;;
26223;SDS011;14820;48.682;8.890;2023-01-16T07:03:20;3.78;;;1.50;;
26223;SDS011;14820;48.682;8.890;2023-01-16T07:05:46;5.00;;;1.40;;
26223;SDS011;14820;48.682;8.890;2023-01-16T07:08:12;3.45;;;1.35;;
26223;SDS011;14820;48.682;8.890;2023-01-16T07:10:38;3.40;;;1.50;;
26223;SDS011;14820;48.682;8.890;2023-01-16T07:13:04;4.50;;;1.20;;
26223;SDS011;14820;48.682;8.890;2023-01-16T07:15:30;4.05;;;1.40;;
26223;SDS011;14820;48.682;8.890;2023-01-16T07:18:15;8.95;;;1.45;;
26223;SDS011;14820;48.682;8.890;2023-01-16T07:21:03;3.23;;;1.30;;
26223;SDS011;14820;48.682;8.890;2023-01-16T07:24:05;6.05;;;1.80;;
26223;SDS011;14820;48.682;8.890;2023-01-16T07:26:33;3.97;;;1.55;;
26223;SDS011;14820;48.682;8.890;2023-01-16T07:29:01;3.28;;;1.50;;
26223;SDS011;14820;48.682;8.890;2023-01-16T07:31:30;5.05;;;2.10;;
26223;SDS011;14820;48.682;8.890;2023-01-16T07:33:57;4.82;;;1.65;;
26223;SDS011;14820;48.682;8.890;2023-01-16T07:36:23;4.03;;;1.35;;
26223;SDS011;14820;48.682;8.890;2023-01-16T07:38:48;4.25;;;1.48;;
26223;SDS011;14820;48.682;8.890;2023-01-16T07:41:14;3.05;;;1.60;;
26223;SDS011;14820;48.682;8.890;2023-01-16T07:43:40;4.28;;;1.65;;
26223;SDS011;14820;48.682;8.890;2023-01-16T07:46:06;2.97;;;1.40;;
26223;SDS011;14820;48.682;8.890;2023-01-16T07:48:31;3.88;;;1.40;;
26223;SDS011;14820;48.682;8.890;2023-01-16T07:50:58;3.83;;;1.45;;
26223;SDS011;14820;48.682;8.890;2023-01-16T07:53:26;4.53;;;1.58;;
26223;SDS011;14820;48.682;8.890;2023-01-16T07:55:55;1.92;;;1.38;;
26223;SDS011;14820;48.682;8.890;2023-01-16T07:58:22;4.00;;;1.75;;
26223;SDS011;14820;48.682;8.890;2023-01-16T08:00:48;4.78;;;1.38;;
26223;SDS011;14820;48.682;8.890;2023-01-16T08:03:16;7.00;;;1.92;;
26223;SDS011;14820;48.682;8.890;2023-01-16T08:05:42;3.97;;;1.60;;
26223;SDS011;14820;48.682;8.890;2023-01-16T08:08:10;2.35;;;1.50;;
26223;SDS011;14820;48.682;8.890;2023-01-16T08:10:38;4.68;;;1.40;;
26223;SDS011;14820;48.682;8.890;2023-01-16T08:13:04;2.13;;;1.15;;
26223;SDS011;14820;48.682;8.890;2023-01-16T08:15:30;6.45;;;1.33;;
26223;SDS011;14820;48.682;8.890;2023-01-16T08:17:56;4.75;;;1.63;;
26223;SDS011;14820;48.682;8.890;2023-01-16T08:20:22;6.75;;;1.50;;
26223;SDS011;14820;48.682;8.890;2023-01-16T08:22:50;8.20;;;1.88;;
26223;SDS011;14820;48.682;8.890;2023-01-16T08:25:17;5.05;;;1.60;;
26223;SDS011;14820;48.682;8.890;2023-01-16T08:27:44;3.17;;;1.60;;
26223;SDS011;14820;48.682;8.890;2023-01-16T08:30:10;2.40;;;1.40;;
26223;SDS011;14820;48.682;8.890;2023-01-16T08:32:37;5.35;;;1.65;;
26223;SDS011;14820;48.682;8.890;2023-01-16T08:35:03;2.97;;;1.70;;
26223;SDS011;14820;48.682;8.890;2023-01-16T08:37:33;3.75;;;1.95;;
26223;SDS011;14820;48.682;8.890;2023-01-16T08:39:58;6.05;;;2.10;;
26223;SDS011;14820;48.682;8.890;2023-01-16T08:42:24;6.15;;;1.88;;
26223;SDS011;14820;48.682;8.890;2023-01-16T08:45:09;3.35;;;1.90;;
26223;SDS011;14820;48.682;8.890;2023-01-16T08:47:54;3.63;;;1.70;;
26223;SDS011;14820;48.682;8.890;2023-01-16T08:50:46;3.53;;;1.80;;
26223;SDS011;14820;48.682;8.890;2023-01-16T08:53:31;2.38;;;1.27;;
26223;SDS011;14820;48.682;8.890;2023-01-16T08:55:57;3.33;;;1.48;;
26223;SDS011;14820;48.682;8.890;2023-01-16T08:58:26;2.42;;;1.40;;
26223;SDS011;14820;48.682;8.890;2023-01-16T09:00:51;1.60;;;1.30;;
26223;SDS011;14820;48.682;8.890;2023-01-16T09:03:17;3.22;;;1.70;;
26223;SDS011;14820;48.682;8.890;2023-01-16T09:05:43;3.75;;;1.65;;
26223;SDS011;14820;48.682;8.890;2023-01-16T09:08:09;2.92;;;1.40;;
26223;SDS011;14820;48.682;8.890;2023-01-16T09:10:34;4.20;;;2.15;;
26223;SDS011;14820;48.682;8.890;2023-01-16T09:13:00;4.05;;;2.15;;
26223;SDS011;14820;48.682;8.890;2023-01-16T09:15:44;1.75;;;1.50;;
26223;SDS011;14820;48.682;8.890;2023-01-16T09:18:10;4.90;;;1.80;;
26223;SDS011;14820;48.682;8.890;2023-01-16T09:20:36;2.72;;;1.65;;
26223;SDS011;14820;48.682;8.890;2023-01-16T09:23:02;3.80;;;1.85;;
26223;SDS011;14820;48.682;8.890;2023-01-16T09:25:29;3.55;;;1.60;;
26223;SDS011;14820;48.682;8.890;2023-01-16T09:27:55;3.25;;;1.60;;
26223;SDS011;14820;48.682;8.890;2023-01-16T09:30:21;2.47;;;1.30;;
26223;SDS011;14820;48.682;8.890;2023-01-16T09:32:47;4.95;;;1.27;;
26223;SDS011;14820;48.682;8.890;2023-01-16T09:35:13;4.15;;;1.45;;
26223;SDS011;14820;48.682;8.890;2023-01-16T09:37:39;2.13;;;1.40;;
26223;SDS011;14820;48.682;8.890;2023-01-16T09:40:12;2.75;;;1.20;;
26223;SDS011;14820;48.682;8.890;2023-01-16T09:45:38;8.10;;;1.63;;
26223;SDS011;14820;48.682;8.890;2023-01-16T09:48:12;1.85;;;1.20;;
26223;SDS011;14820;48.682;8.890;2023-01-16T09:51:24;3.05;;;1.20;;
26223;SDS011;14820;48.682;8.890;2023-01-16T09:54:09;1.85;;;1.02;;
26223;SDS011;14820;48.682;8.890;2023-01-16T09:56:48;1.88;;;1.20;;
26223;SDS011;14820;48.682;8.890;2023-01-16T09:59:41;1.63;;;1.20;;
26223;SDS011;14820;48.682;8.890;2023-01-16T10:02:14;3.70;;;1.30;;
26223;SDS011;14820;48.682;8.890;2023-01-16T10:05:00;3.03;;;1.13;;
26223;SDS011;14820;48.682;8.890;2023-01-16T10:18:50;1.42;;;1.08;;
26223;SDS011;14820;48.682;8.890;2023-01-16T10:21:22;2.50;;;1.10;;
26223;SDS011;14820;48.682;8.890;2023-01-16T10:29:23;1.65;;;0.90;;
26223;SDS011;14820;48.682;8.890;2023-01-16T10:32:02;1.85;;;1.08;;
26223;SDS011;14820;48.682;8.890;2023-01-16T10:37:34;2.40;;;1.20;;
26223;SDS011;14820;48.682;8.890;2023-01-16T10:40:00;2.80;;;1.40;;
26223;SDS011;14820;48.682;8.890;2023-01-16T10:43:02;2.85;;;1.30;;
26223;SDS011;14820;48.682;8.890;2023-01-16T10:45:54;2.38;;;1.20;;
26223;SDS011;14820;48.682;8.890;2023-01-16T10:48:41;6.25;;;1.88;;
26223;SDS011;14820;48.682;8.890;2023-01-16T10:51:25;2.38;;;1.35;;
26223;SDS011;14820;48.682;8.890;2023-01-16T10:53:51;2.58;;;1.33;;
26223;SDS011;14820;48.682;8.890;2023-01-16T10:56:16;1.70;;;1.10;;
26223;SDS011;14820;48.682;8.890;2023-01-16T10:58:42;2.13;;;0.98;;
26223;SDS011;14820;48.682;8.890;2023-01-16T11:01:13;2.55;;;1.27;;
26223;SDS011;14820;48.682;8.890;2023-01-16T11:06:27;1.75;;;1.08;;
26223;SDS011;14820;48.682;8.890;2023-01-16T11:08:54;1.75;;;1.00;;
26223;SDS011;14820;48.682;8.890;2023-01-16T11:11:29;2.25;;;0.90;;
26223;SDS011;14820;48.682;8.890;2023-01-16T11:14:33;1.15;;;0.80;;
26223;SDS011;14820;48.682;8.890;2023-01-16T11:17:29;5.00;;;1.00;;
26223;SDS011;14820;48.682;8.890;2023-01-16T11:20:19;2.65;;;0.90;;
26223;SDS011;14820;48.682;8.890;2023-01-16T11:22:56;2.63;;;1.10;;
26223;SDS011;14820;48.682;8.890;2023-01-16T11:25:29;1.10;;;0.80;;
26223;SDS011;14820;48.682;8.890;2023-01-16T11:27:57;4.55;;;0.98;;
26223;SDS011;14820;48.682;8.890;2023-01-16T11:30:28;1.95;;;0.85;;
26223;SDS011;14820;48.682;8.890;2023-01-16T11:32:58;1.35;;;0.90;;
26223;SDS011;14820;48.682;8.890;2023-01-16T11:35:25;0.85;;;0.75;;
26223;SDS011;14820;48.682;8.890;2023-01-16T11:37:57;1.08;;;0.70;;
26223;SDS011;14820;48.682;8.890;2023-01-16T11:40:24;4.75;;;1.15;;
26223;SDS011;14820;48.682;8.890;2023-01-16T11:42:56;3.00;;;1.85;;
26223;SDS011;14820;48.682;8.890;2023-01-16T11:45:43;4.70;;;1.20;;
26223;SDS011;14820;48.682;8.890;2023-01-16T11:48:40;1.27;;;0.80;;
26223;SDS011;14820;48.682;8.890;2023-01-16T11:51:13;2.60;;;1.00;;
26223;SDS011;14820;48.682;8.890;2023-01-16T11:53:42;1.27;;;0.73;;
26223;SDS011;14820;48.682;8.890;2023-01-16T12:08:16;2.22;;;1.20;;
26223;SDS011;14820;48.682;8.890;2023-01-16T12:13:45;3.17;;;1.58;;
26223;SDS011;14820;48.682;8.890;2023-01-16T12:27:26;5.57;;;1.65;;
26223;SDS011;14820;48.682;8.890;2023-01-16T12:33:12;3.00;;;1.38;;
26223;SDS011;14820;48.682;8.890;2023-01-16T12:38:50;1.95;;;1.30;;
26223;SDS011;14820;48.682;8.890;2023-01-16T12:42:05;1.35;;;0.80;;
26223;SDS011;14820;48.682;8.890;2023-01-16T12:59:00;1.98;;;1.20;;
26223;SDS011;14820;48.682;8.890;2023-01-16T13:01:48;1.77;;;0.90;;
26223;SDS011;14820;48.682;8.890;2023-01-16T13:04:24;1.27;;;0.88;;
26223;SDS011;14820;48.682;8.890;2023-01-16T13:06:58;2.17;;;0.90;;
26223;SDS011;14820;48.682;8.890;2023-01-16T13:09:35;3.10;;;0.90;;
26223;SDS011;14820;48.682;8.890;2023-01-16T13:15:12;2.20;;;0.95;;
26223;SDS011;14820;48.682;8.890;2023-01-16T13:17:45;1.70;;;0.90;;
26223;SDS011;14820;48.682;8.890;2023-01-16T13:20:22;2.40;;;1.10;;
26223;SDS011;14820;48.682;8.890;2023-01-16T13:22:51;2.60;;;1.00;;
26223;SDS011;14820;48.682;8.890;2023-01-16T13:25:32;2.92;;;1.20;;
26223;SDS011;14820;48.682;8.890;2023-01-16T13:31:10;1.95;;;1.33;;
26223;SDS011;14820;48.682;8.890;2023-01-16T13:33:48;2.15;;;1.10;;
26223;SDS011;14820;48.682;8.890;2023-01-16T13:41:48;3.17;;;1.50;;
26223;SDS011;14820;48.682;8.890;2023-01-16T13:44:24;6.03;;;1.10;;
26223;SDS011;14820;48.682;8.890;2023-01-16T13:47:14;2.10;;;1.15;;
26223;SDS011;14820;48.682;8.890;2023-01-16T13:49:47;1.23;;;0.77;;
26223;SDS011;14820;48.682;8.890;2023-01-16T13:52:35;2.33;;;1.20;;
26223;SDS011;14820;48.682;8.890;2023-01-16T13:55:05;2.30;;;1.50;;
26223;SDS011;14820;48.682;8.890;2023-01-16T13:57:31;1.20;;;1.08;;
26223;SDS011;14820;48.682;8.890;2023-01-16T14:00:08;3.22;;;0.90;;
26223;SDS011;14820;48.682;8.890;2023-01-16T14:05:22;2.00;;;0.90;;
26223;SDS011;14820;48.682;8.890;2023-01-16T14:13:39;4.43;;;0.77;;
26223;SDS011;14820;48.682;8.890;2023-01-16T14:16:00;1.75;;;0.70;;
26223;SDS011;14820;48.682;8.890;2023-01-16T14:21:41;1.55;;;0.73;;
26223;SDS011;14820;48.682;8.890;2023-01-16T14:24:27;0.85;;;0.73;;
26223;SDS011;14820;48.682;8.890;2023-01-16T14:27:01;3.88;;;1.00;;
26223;SDS011;14820;48.682;8.890;2023-01-16T14:29:29;1.25;;;0.80;;
26223;SDS011;14820;48.682;8.890;2023-01-16T14:34:48;1.55;;;0.80;;
26223;SDS011;14820;48.682;8.890;2023-01-16T14:37:26;1.52;;;0.80;;
26223;SDS011;14820;48.682;8.890;2023-01-16T14:40:20;2.55;;;0.90;;
26223;SDS011;14820;48.682;8.890;2023-01-16T14:43:07;1.23;;;0.80;;
26223;SDS011;14820;48.682;8.890;2023-01-16T14:50:00;2.58;;;1.25;;
26223;SDS011;14820;48.682;8.890;2023-01-16T14:53:25;1.45;;;0.95;;
26223;SDS011;14820;48.682;8.890;2023-01-16T14:56:07;2.10;;;1.15;;
26223;SDS011;14820;48.682;8.890;2023-01-16T15:01:57;2.65;;;1.40;;
26223;SDS011;14820;48.682;8.890;2023-01-16T15:04:45;3.22;;;1.40;;
26223;SDS011;14820;48.682;8.890;2023-01-16T15:12:43;1.55;;;1.00;;
26223;SDS011;14820;48.682;8.890;2023-01-16T15:15:30;1.00;;;0.90;;
26223;SDS011;14820;48.682;8.890;2023-01-16T15:17:56;0.82;;;0.77;;
26223;SDS011;14820;48.682;8.890;2023-01-16T15:21:02;1.80;;;1.00;;
26223;SDS011;14820;48.682;8.890;2023-01-16T15:23:55;0.70;;;0.70;;
26223;SDS011;14820;48.682;8.890;2023-01-16T15:32:01;1.27;;;0.70;;
26223;SDS011;14820;48.682;8.890;2023-01-16T15:34:32;1.52;;;0.80;;
26223;SDS011;14820;48.682;8.890;2023-01-16T15:36:58;0.73;;;0.68;;
26223;SDS011;14820;48.682;8.890;2023-01-16T15:39:40;1.38;;;1.00;;
26223;SDS011;14820;48.682;8.890;2023-01-16T15:42:24;1.10;;;0.80;;
26223;SDS011;14820;48.682;8.890;2023-01-16T15:48:21;2.55;;;1.10;;
26223;SDS011;14820;48.682;8.890;2023-01-16T15:50:58;0.80;;;0.73;;
26223;SDS011;14820;48.682;8.890;2023-01-16T15:53:40;1.02;;;0.93;;
26223;SDS011;14820;48.682;8.890;2023-01-16T15:56:33;1.02;;;0.93;;
26223;SDS011;14820;48.682;8.890;2023-01-16T15:59:00;1.20;;;0.90;;
26223;SDS011;14820;48.682;8.890;2023-01-16T16:01:30;1.75;;;0.90;;
26223;SDS011;14820;48.682;8.890;2023-01-16T16:03:58;2.83;;;1.60;;
26223;SDS011;14820;48.682;8.890;2023-01-16T16:06:26;3.83;;;1.10;;
26223;SDS011;14820;48.682;8.890;2023-01-16T16:08:59;1.95;;;1.00;;
26223;SDS011;14820;48.682;8.890;2023-01-16T16:11:28;1.25;;;1.15;;
26223;SDS011;14820;48.682;8.890;2023-01-16T16:17:17;6.60;;;1.73;;
26223;SDS011;14820;48.682;8.890;2023-01-16T16:22:53;2.60;;;1.40;;
26223;SDS011;14820;48.682;8.890;2023-01-16T16:25:44;1.65;;;1.30;;
26223;SDS011;14820;48.682;8.890;2023-01-16T16:28:36;3.22;;;1.65;;
26223;SDS011;14820;48.682;8.890;2023-01-16T16:33:56;4.70;;;2.90;;
26223;SDS011;14820;48.682;8.890;2023-01-16T16:36:34;2.22;;;1.63;;
26223;SDS011;14820;48.682;8.890;2023-01-16T16:39:02;4.13;;;1.50;;
26223;SDS011;14820;48.682;8.890;2023-01-16T16:44:33;8.48;;;4.28;;
26223;SDS011;14820;48.682;8.890;2023-01-16T16:47:01;10.18;;;5.40;;
26223;SDS011;14820;48.682;8.890;2023-01-16T16:49:33;3.78;;;2.35;;
26223;SDS011;14820;48.682;8.890;2023-01-16T16:57:53;3.10;;;1.50;;
26223;SDS011;14820;48.682;8.890;2023-01-16T17:00:21;2.03;;;1.52;;
26223;SDS011;14820;48.682;8.890;2023-01-16T17:02:47;2.25;;;1.75;;
26223;SDS011;14820;48.682;8.890;2023-01-16T17:05:15;2.22;;;1.35;;
26223;SDS011;14820;48.682;8.890;2023-01-16T17:07:46;1.92;;;1.10;;
26223;SDS011;14820;48.682;8.890;2023-01-16T17:10:13;2.08;;;1.60;;
26223;SDS011;14820;48.682;8.890;2023-01-16T17:12:41;2.33;;;1.25;;
26223;SDS011;14820;48.682;8.890;2023-01-16T17:15:08;2.58;;;1.10;;
26223;SDS011;14820;48.682;8.890;2023-01-16T17:17:37;2.08;;;1.70;;
26223;SDS011;14820;48.682;8.890;2023-01-16T17:20:08;3.05;;;1.50;;
26223;SDS011;14820;48.682;8.890;2023-01-16T17:22:44;1.42;;;1.27;;
26223;SDS011;14820;48.682;8.890;2023-01-16T17:25:11;1.52;;;1.27;;
26223;SDS011;14820;48.682;8.890;2023-01-16T17:27:48;2.38;;;1.35;;
26223;SDS011;14820;48.682;8.890;2023-01-16T17:30:19;2.28;;;1.63;;
26223;SDS011;14820;48.682;8.890;2023-01-16T17:32:56;2.47;;;1.27;;
26223;SDS011;14820;48.682;8.890;2023-01-16T17:35:23;3.03;;;1.48;;
26223;SDS011;14820;48.682;8.890;2023-01-16T17:37:49;5.35;;;2.33;;
26223;SDS011;14820;48.682;8.890;2023-01-16T17:40:15;1.10;;;1.00;;
26223;SDS011;14820;48.682;8.890;2023-01-16T17:42:41;1.92;;;1.30;;
26223;SDS011;14820;48.682;8.890;2023-01-16T17:48:15;1.60;;;1.10;;
26223;SDS011;14820;48.682;8.890;2023-01-16T17:50:41;1.80;;;1.00;;
26223;SDS011;14820;48.682;8.890;2023-01-16T17:53:11;2.40;;;1.30;;
26223;SDS011;14820;48.682;8.890;2023-01-16T17:55:38;3.50;;;1.95;;
26223;SDS011;14820;48.682;8.890;2023-01-16T17:58:17;2.55;;;1.65;;
26223;SDS011;14820;48.682;8.890;2023-01-16T18:01:01;3.15;;;1.98;;
26223;SDS011;14820;48.682;8.890;2023-01-16T18:03:30;3.53;;;1.50;;
26223;SDS011;14820;48.682;8.890;2023-01-16T18:06:03;3.33;;;1.48;;
26223;SDS011;14820;48.682;8.890;2023-01-16T18:08:32;2.08;;;1.10;;
26223;SDS011;14820;48.682;8.890;2023-01-16T18:10:59;1.60;;;1.15;;
26223;SDS011;14820;48.682;8.890;2023-01-16T18:13:49;2.10;;;1.20;;
26223;SDS011;14820;48.682;8.890;2023-01-16T18:16:35;4.65;;;2.03;;
26223;SDS011;14820;48.682;8.890;2023-01-16T18:19:20;4.53;;;3.50;;
26223;SDS011;14820;48.682;8.890;2023-01-16T18:21:46;5.38;;;4.18;;
26223;SDS011;14820;48.682;8.890;2023-01-16T18:26:53;6.20;;;4.57;;
26223;SDS011;14820;48.682;8.890;2023-01-16T18:29:19;4.50;;;3.47;;
26223;SDS011;14820;48.682;8.890;2023-01-16T18:31:45;7.60;;;5.10;;
26223;SDS011;14820;48.682;8.890;2023-01-16T18:34:29;8.60;;;6.72;;
26223;SDS011;14820;48.682;8.890;2023-01-16T18:36:54;7.72;;;5.40;;